createdAt,value
2022-10-01T00:02:08.891Z,94.54
2022-10-01T00:04:37.975Z,95.75
2022-10-01T00:07:09.792Z,95.60
2022-10-01T00:09:38.463Z,94.96
2022-10-01T00:12:08.481Z,94.80
2022-10-01T00:14:39.355Z,95.31
2022-10-01T00:17:07.481Z,95.34
2022-10-01T00:19:35.617Z,94.91
2022-10-01T00:22:03.898Z,95.13
2022-10-01T00:24:32.324Z,94.97
2022-10-01T00:27:00.605Z,94.83
2022-10-01T00:29:28.752Z,94.77
2022-10-01T00:31:57.414Z,94.90
2022-10-01T00:34:27.084Z,94.72
2022-10-01T00:36:55.360Z,94.60
2022-10-01T00:39:24.021Z,94.61
2022-10-01T00:41:52.584Z,94.47
2022-10-01T00:44:32.343Z,94.21
2022-10-01T00:47:16.069Z,94.28
2022-10-01T00:49:47.385Z,94.29
2022-10-01T00:52:22.205Z,94.18
2022-10-01T00:54:57.819Z,94.02
2022-10-01T00:57:27.728Z,94.03
2022-10-01T01:00:01.498Z,94.58
2022-10-01T01:02:29.573Z,95.53
2022-10-01T01:04:59.199Z,95.72
2022-10-01T01:07:29.943Z,95.54
2022-10-01T01:09:58.947Z,95.39
2022-10-01T01:12:57.384Z,95.23
2022-10-01T01:15:41.843Z,95.00
2022-10-01T01:18:30.387Z,94.97
2022-10-01T01:21:13.919Z,94.81
2022-10-01T01:23:57.359Z,94.81
2022-10-01T01:26:35.198Z,94.85
2022-10-01T01:29:13.804Z,95.02
2022-10-01T01:31:48.837Z,95.41
2022-10-01T01:34:24.717Z,96.03
2022-10-01T01:36:59.405Z,95.93
2022-10-01T01:39:32.314Z,95.59
2022-10-01T01:42:06.708Z,95.66
2022-10-01T01:44:40.382Z,96.47
2022-10-01T01:47:10.800Z,96.70
2022-10-01T01:49:40.230Z,96.24
2022-10-01T01:52:15.602Z,96.26
2022-10-01T01:54:50.099Z,96.28
2022-10-01T01:57:20.203Z,96.02
2022-10-01T01:59:48.384Z,95.81
2022-10-01T02:02:27.190Z,95.87
2022-10-01T02:05:02.377Z,95.56
2022-10-01T02:07:39.908Z,95.44
2022-10-01T02:10:17.742Z,95.70
2022-10-01T02:13:15.210Z,96.14
2022-10-01T02:16:19.291Z,96.13
2022-10-01T02:19:05.634Z,95.68
2022-10-01T02:21:42.125Z,95.52
2022-10-01T02:24:27.777Z,95.63
2022-10-01T02:26:58.896Z,95.77
2022-10-01T02:29:28.987Z,95.75
2022-10-01T02:31:57.711Z,95.77
2022-10-01T02:34:30.488Z,95.99
2022-10-01T02:37:00.881Z,96.34
2022-10-01T02:39:33.262Z,96.85
2022-10-01T02:42:04.288Z,96.85
2022-10-01T02:44:38.840Z,96.71
2022-10-01T02:47:36.996Z,96.72
2022-10-01T02:50:06.912Z,96.58
2022-10-01T02:52:50.403Z,96.65
2022-10-01T02:55:26.271Z,96.93
2022-10-01T02:57:55.444Z,97.43
2022-10-01T03:00:24.164Z,97.52
2022-10-01T03:02:53.040Z,97.61
2022-10-01T03:05:21.668Z,97.84
2022-10-01T03:07:50.403Z,97.84
2022-10-01T03:10:19.347Z,97.42
2022-10-01T03:12:47.471Z,97.04
2022-10-01T03:15:19.455Z,96.78
2022-10-01T03:17:52.219Z,96.64
2022-10-01T03:20:20.585Z,96.62
2022-10-01T03:22:48.798Z,96.66
2022-10-01T03:25:17.612Z,96.57
2022-10-01T03:27:46.715Z,96.58
2022-10-01T03:30:14.991Z,96.57
2022-10-01T03:32:43.003Z,96.40
2022-10-01T03:35:11.180Z,96.48
2022-10-01T03:37:39.112Z,96.75
2022-10-01T03:40:08.040Z,97.28
2022-10-01T03:42:36.169Z,97.07
2022-10-01T03:45:04.720Z,97.10
2022-10-01T03:47:32.900Z,97.37
2022-10-01T03:50:00.891Z,97.29
2022-10-01T03:52:28.899Z,97.43
2022-10-01T03:54:56.865Z,97.52
2022-10-01T03:57:24.924Z,97.70
2022-10-01T03:59:53.063Z,97.90
2022-10-01T04:02:22.169Z,97.97
2022-10-01T04:04:51.247Z,98.11
2022-10-01T04:07:19.630Z,97.98
2022-10-01T04:09:48.048Z,97.76
2022-10-01T04:12:16.306Z,97.47
2022-10-01T04:14:44.622Z,97.51
2022-10-01T04:17:13.101Z,97.87
2022-10-01T04:19:41.108Z,98.18
2022-10-01T04:22:09.208Z,98.00
2022-10-01T04:24:37.835Z,98.05
2022-10-01T04:27:05.796Z,98.08
2022-10-01T04:29:38.005Z,98.00
2022-10-01T04:32:08.158Z,98.08
2022-10-01T04:34:54.405Z,98.14
2022-10-01T04:37:23.633Z,98.06
2022-10-01T04:39:51.642Z,98.15
2022-10-01T04:42:20.863Z,98.34
2022-10-01T04:44:49.035Z,98.74
2022-10-01T04:47:17.126Z,98.70
2022-10-01T04:49:45.104Z,98.62
2022-10-01T04:52:13.122Z,98.64
2022-10-01T04:54:41.341Z,98.78
2022-10-01T04:57:09.915Z,98.83
2022-10-01T04:59:38.060Z,98.74
2022-10-01T05:02:06.163Z,98.69
2022-10-01T05:04:34.499Z,99.03
2022-10-01T05:07:02.367Z,99.84
2022-10-01T05:09:30.407Z,99.99
2022-10-01T05:11:58.734Z,100.00
2022-10-01T05:14:27.241Z,100.00
2022-10-01T05:16:55.400Z,100.00
2022-10-01T05:19:27.898Z,100.00
2022-10-01T05:21:56.923Z,100.00
2022-10-01T05:24:25.067Z,100.00
2022-10-01T05:26:55.886Z,100.00
2022-10-01T05:29:23.907Z,100.00
2022-10-01T05:31:51.995Z,99.98
2022-10-01T05:34:20.068Z,99.93
2022-10-01T05:36:48.396Z,99.91
2022-10-01T05:39:16.351Z,99.82
2022-10-01T05:41:44.477Z,99.78
2022-10-01T05:44:12.501Z,99.74
2022-10-01T05:46:40.779Z,99.92
2022-10-01T05:49:08.730Z,99.89
2022-10-01T05:51:37.191Z,99.79
2022-10-01T05:54:06.000Z,99.98
2022-10-01T05:56:34.017Z,100.00
2022-10-01T05:59:06.839Z,99.98
2022-10-01T06:01:34.830Z,99.95
2022-10-01T06:04:03.408Z,99.97
2022-10-01T06:06:32.325Z,99.99
2022-10-01T06:09:00.612Z,100.00
2022-10-01T06:11:28.801Z,100.00
2022-10-01T06:13:56.728Z,100.00
2022-10-01T06:16:24.902Z,100.00
2022-10-01T06:18:57.513Z,99.98
2022-10-01T06:21:26.308Z,100.00
2022-10-01T06:23:55.624Z,99.88
2022-10-01T06:26:24.485Z,99.25
2022-10-01T06:28:52.800Z,98.09
2022-10-01T06:31:21.610Z,97.29
2022-10-01T06:33:49.585Z,95.43
2022-10-01T06:36:26.645Z,94.05
2022-10-01T06:38:54.602Z,91.86
2022-10-01T06:41:22.826Z,91.11
2022-10-01T06:43:50.946Z,89.58
2022-10-01T06:46:18.928Z,88.38
2022-10-01T06:48:47.053Z,87.64
2022-10-01T06:51:15.158Z,85.32
2022-10-01T06:53:43.596Z,83.21
2022-10-01T06:56:11.576Z,82.10
2022-10-01T06:58:42.633Z,81.78
2022-10-01T07:01:11.191Z,80.06
2022-10-01T07:03:39.266Z,81.08
2022-10-01T07:06:09.124Z,80.53
2022-10-01T07:08:37.124Z,79.95
2022-10-01T07:11:05.255Z,78.86
2022-10-01T07:13:33.299Z,79.17
2022-10-01T07:16:04.660Z,77.50
2022-10-01T07:18:32.959Z,77.11
2022-10-01T07:21:02.055Z,76.89
2022-10-01T07:23:30.066Z,77.35
2022-10-01T07:25:59.113Z,76.13
2022-10-01T07:28:28.401Z,73.86
2022-10-01T07:31:02.964Z,72.79
2022-10-01T07:33:31.074Z,72.79
2022-10-01T07:36:06.415Z,74.03
2022-10-01T07:38:35.121Z,74.33
2022-10-01T07:41:03.668Z,73.21
2022-10-01T07:43:34.786Z,71.58
2022-10-01T07:46:03.709Z,70.74
2022-10-01T07:48:31.886Z,71.94
2022-10-01T07:50:59.827Z,72.11
2022-10-01T07:53:28.214Z,72.39
2022-10-01T07:55:56.917Z,71.77
2022-10-01T07:58:24.878Z,70.79
2022-10-01T08:00:58.521Z,70.25
2022-10-01T08:03:27.257Z,70.64
2022-10-01T08:05:55.262Z,70.03
2022-10-01T08:08:23.437Z,70.00
2022-10-01T08:10:51.451Z,69.32
2022-10-01T08:13:20.534Z,68.24
2022-10-01T08:15:54.694Z,67.60
2022-10-01T08:18:23.394Z,67.82
2022-10-01T08:20:52.050Z,66.62
2022-10-01T08:23:20.190Z,66.50
2022-10-01T08:25:48.567Z,66.11
2022-10-01T08:28:16.713Z,65.63
2022-10-01T08:30:44.779Z,65.37
2022-10-01T08:33:13.552Z,64.72
2022-10-01T08:35:43.658Z,64.21
2022-10-01T08:38:13.189Z,62.13
2022-10-01T08:40:49.962Z,59.95
2022-10-01T08:43:39.307Z,59.28
2022-10-01T08:46:30.784Z,58.29
2022-10-01T08:49:13.317Z,57.80
2022-10-01T08:52:00.187Z,57.85
2022-10-01T08:54:39.924Z,56.77
2022-10-01T08:57:20.438Z,54.52
2022-10-01T08:59:49.984Z,53.98
2022-10-01T09:02:24.096Z,52.36
2022-10-01T09:05:01.514Z,52.55
2022-10-01T09:07:47.963Z,52.24
2022-10-01T09:10:25.704Z,51.59
2022-10-01T09:13:27.868Z,52.68
2022-10-01T09:16:15.551Z,52.25
2022-10-01T09:19:06.467Z,51.46
2022-10-01T09:21:49.730Z,51.40
2022-10-01T09:24:50.447Z,51.96
2022-10-01T09:27:23.526Z,53.10
2022-10-01T09:29:56.509Z,53.27
2022-10-01T09:32:34.659Z,53.48
2022-10-01T09:35:24.309Z,53.63
2022-10-01T09:37:58.161Z,53.48
2022-10-01T09:40:46.742Z,53.65
2022-10-01T09:43:15.358Z,54.67
2022-10-01T09:45:43.385Z,55.02
2022-10-01T09:48:22.335Z,55.49
2022-10-01T09:50:58.292Z,54.95
2022-10-01T09:53:35.007Z,54.64
2022-10-01T09:56:14.892Z,55.09
2022-10-01T09:58:47.863Z,55.40
2022-10-01T10:01:26.636Z,55.34
2022-10-01T10:03:56.787Z,55.92
2022-10-01T10:06:28.575Z,56.02
2022-10-01T10:08:59.348Z,55.96
2022-10-01T10:11:31.159Z,56.07
2022-10-01T10:14:03.662Z,56.85
2022-10-01T10:16:35.560Z,56.36
2022-10-01T10:19:10.355Z,55.71
2022-10-01T10:21:38.438Z,55.79
2022-10-01T10:24:22.716Z,54.88
2022-10-01T10:26:59.502Z,53.56
2022-10-01T10:29:36.524Z,52.44
2022-10-01T10:32:14.051Z,48.91
2022-10-01T10:34:47.387Z,48.37
2022-10-01T10:37:28.344Z,47.12
2022-10-01T10:39:57.476Z,47.98
2022-10-01T10:42:25.968Z,48.09
2022-10-01T10:44:57.214Z,47.59
2022-10-01T10:47:28.660Z,45.76
2022-10-01T10:50:00.905Z,43.72
2022-10-01T10:52:37.575Z,43.18
2022-10-01T10:55:25.413Z,43.17
2022-10-01T10:57:57.540Z,41.75
2022-10-01T11:00:26.746Z,40.63
2022-10-01T11:02:57.460Z,39.81
2022-10-01T11:05:30.099Z,39.71
2022-10-01T11:08:06.775Z,38.87
2022-10-01T11:10:47.865Z,37.83
2022-10-01T11:13:18.770Z,36.59
2022-10-01T11:16:07.655Z,35.70
2022-10-01T11:18:56.099Z,36.29
2022-10-01T11:21:48.074Z,34.87
2022-10-01T11:24:37.486Z,35.40
2022-10-01T11:27:15.641Z,33.85
2022-10-01T11:30:13.232Z,32.96
2022-10-01T11:32:50.286Z,31.10
2022-10-01T11:35:25.794Z,30.33
2022-10-01T11:38:06.834Z,29.93
2022-10-01T11:40:51.332Z,29.74
2022-10-01T11:43:35.270Z,30.83
2022-10-01T11:46:33.935Z,29.96
2022-10-01T11:49:34.709Z,29.65
2022-10-01T11:52:22.824Z,30.23
2022-10-01T11:55:27.546Z,30.02
2022-10-01T11:58:47.714Z,30.20
2022-10-01T12:01:39.377Z,30.10
2022-10-01T12:04:34.888Z,30.78
2022-10-01T12:07:10.979Z,31.16
2022-10-01T12:09:58.504Z,31.57
2022-10-01T12:12:40.770Z,32.33
2022-10-01T12:15:21.023Z,33.26
2022-10-01T12:17:55.937Z,32.90
2022-10-01T12:20:44.718Z,32.56
2022-10-01T12:23:18.697Z,32.15
2022-10-01T12:26:17.921Z,31.41
2022-10-01T12:28:55.547Z,31.53
2022-10-01T12:31:50.442Z,32.14
2022-10-01T12:34:39.401Z,32.17
2022-10-01T12:37:21.830Z,31.59
2022-10-01T12:39:58.919Z,31.37
2022-10-01T12:42:54.297Z,31.58
2022-10-01T12:45:43.906Z,31.44
2022-10-01T12:48:33.764Z,31.85
2022-10-01T12:51:39.928Z,32.05
2022-10-01T12:54:21.283Z,31.83
2022-10-01T12:57:37.145Z,32.09
2022-10-01T13:00:13.639Z,32.26
2022-10-01T13:02:56.410Z,32.16
2022-10-01T13:05:47.585Z,31.77
2022-10-01T13:08:18.575Z,31.32
2022-10-01T13:10:52.338Z,31.84
2022-10-01T13:13:33.040Z,32.42
2022-10-01T13:16:37.615Z,32.93
2022-10-01T13:19:32.556Z,32.33
2022-10-01T13:22:22.147Z,32.12
2022-10-01T13:25:00.994Z,32.12
2022-10-01T13:27:35.141Z,32.47
2022-10-01T13:30:27.968Z,32.23
2022-10-01T13:33:01.062Z,32.36
2022-10-01T13:35:39.580Z,32.89
2022-10-01T13:38:15.144Z,33.29
2022-10-01T13:40:43.909Z,33.56
2022-10-01T13:43:23.321Z,33.74
2022-10-01T13:45:54.410Z,34.07
2022-10-01T13:48:34.701Z,34.28
2022-10-01T13:51:06.944Z,34.75
2022-10-01T13:53:41.003Z,35.12
2022-10-01T13:56:15.539Z,35.53
2022-10-01T13:58:45.762Z,35.66
2022-10-01T14:01:21.295Z,35.93
2022-10-01T14:03:57.635Z,36.09
2022-10-01T14:06:33.606Z,36.52
2022-10-01T14:09:13.829Z,36.72
2022-10-01T14:12:04.420Z,37.13
2022-10-01T14:14:54.986Z,37.40
2022-10-01T14:17:30.928Z,37.84
2022-10-01T14:20:00.838Z,37.91
2022-10-01T14:22:54.139Z,38.04
2022-10-01T14:25:38.345Z,37.98
2022-10-01T14:28:24.554Z,38.32
2022-10-01T14:30:52.688Z,38.47
2022-10-01T14:33:44.813Z,38.68
2022-10-01T14:36:28.697Z,39.02
2022-10-01T14:39:17.938Z,39.69
2022-10-01T14:41:48.224Z,39.91
2022-10-01T14:44:22.159Z,39.85
2022-10-01T14:46:51.727Z,40.28
2022-10-01T14:49:33.242Z,40.63
2022-10-01T14:52:04.345Z,40.87
2022-10-01T14:54:43.884Z,40.85
2022-10-01T14:57:17.944Z,41.40
2022-10-01T14:59:48.664Z,41.67
2022-10-01T15:02:22.577Z,41.79
2022-10-01T15:04:53.348Z,42.06
2022-10-01T15:07:21.733Z,42.09
2022-10-01T15:09:51.353Z,42.15
2022-10-01T15:12:22.978Z,42.26
2022-10-01T15:14:54.516Z,42.16
2022-10-01T15:17:27.087Z,42.41
2022-10-01T15:19:56.753Z,42.47
2022-10-01T15:22:30.193Z,42.69
2022-10-01T15:25:01.117Z,42.94
2022-10-01T15:27:29.458Z,43.26
2022-10-01T15:30:01.269Z,43.50
2022-10-01T15:32:29.646Z,43.69
2022-10-01T15:35:01.868Z,43.88
2022-10-01T15:37:31.754Z,44.05
2022-10-01T15:40:01.248Z,44.25
2022-10-01T15:42:34.888Z,44.45
2022-10-01T15:45:09.026Z,44.79
2022-10-01T15:47:38.994Z,45.02
2022-10-01T15:50:10.174Z,45.26
2022-10-01T15:52:51.017Z,45.52
2022-10-01T15:55:29.168Z,46.34
2022-10-01T15:58:20.905Z,47.11
2022-10-01T16:00:56.791Z,47.34
2022-10-01T16:03:29.312Z,47.52
2022-10-01T16:06:01.696Z,47.76
2022-10-01T16:08:34.586Z,47.97
2022-10-01T16:11:17.308Z,48.03
2022-10-01T16:13:49.138Z,49.12
2022-10-01T16:16:35.338Z,50.46
2022-10-01T16:19:22.247Z,51.20
2022-10-01T16:22:29.282Z,51.45
2022-10-01T16:25:03.685Z,52.20
2022-10-01T16:27:45.503Z,53.32
2022-10-01T16:30:21.351Z,54.07
2022-10-01T16:32:49.422Z,55.47
2022-10-01T16:35:27.661Z,58.22
2022-10-01T16:37:58.166Z,60.20
2022-10-01T16:40:32.540Z,61.75
2022-10-01T16:43:01.205Z,63.61
2022-10-01T16:45:37.716Z,64.85
2022-10-01T16:48:14.502Z,67.17
2022-10-01T16:50:46.641Z,69.47
2022-10-01T16:53:17.428Z,71.60
2022-10-01T16:55:46.953Z,73.10
2022-10-01T16:58:15.745Z,74.61
2022-10-01T17:00:44.160Z,76.62
2022-10-01T17:03:17.684Z,78.00
2022-10-01T17:05:46.562Z,79.17
2022-10-01T17:08:15.632Z,79.95
2022-10-01T17:10:46.517Z,81.15
2022-10-01T17:13:15.672Z,81.96
2022-10-01T17:15:44.043Z,82.66
2022-10-01T17:18:14.009Z,79.67
2022-10-01T17:20:42.472Z,77.59
2022-10-01T17:23:13.856Z,77.49
2022-10-01T17:25:49.687Z,77.64
2022-10-01T17:28:20.777Z,77.51
2022-10-01T17:30:49.899Z,77.64
2022-10-01T17:33:19.477Z,77.61
2022-10-01T17:35:52.040Z,77.81
2022-10-01T17:38:21.239Z,77.75
2022-10-01T17:40:55.454Z,78.40
2022-10-01T17:43:25.327Z,78.82
2022-10-01T17:45:59.967Z,79.19
2022-10-01T17:48:31.136Z,80.09
2022-10-01T17:51:07.000Z,81.16
2022-10-01T17:53:42.091Z,82.28
2022-10-01T17:56:17.749Z,83.21
2022-10-01T17:58:47.144Z,83.58
2022-10-01T18:01:20.107Z,85.27
2022-10-01T18:03:54.070Z,85.97
2022-10-01T18:06:23.490Z,87.43
2022-10-01T18:08:55.494Z,87.72
2022-10-01T18:11:27.971Z,88.31
2022-10-01T18:13:56.748Z,89.38
2022-10-01T18:16:26.739Z,90.34
2022-10-01T18:21:48.472Z,91.17
2022-10-01T18:24:17.263Z,92.14
2022-10-01T18:26:46.120Z,92.51
2022-10-01T18:29:21.949Z,92.82
2022-10-01T18:32:07.585Z,93.04
2022-10-01T18:34:55.106Z,93.79
2022-10-01T18:37:40.122Z,93.53
2022-10-01T18:40:42.156Z,93.64
2022-10-01T18:43:17.746Z,94.65
2022-10-01T18:45:54.885Z,94.67
2022-10-01T18:48:55.722Z,94.42
2022-10-01T18:51:54.459Z,94.15
2022-10-01T18:54:50.654Z,93.52
2022-10-01T18:57:33.107Z,93.15
2022-10-01T19:00:08.559Z,92.90
2022-10-01T19:03:18.556Z,93.56
2022-10-01T19:05:56.784Z,94.00
2022-10-01T19:08:54.338Z,93.85
2022-10-01T19:12:00.647Z,93.09
2022-10-01T19:14:45.002Z,93.10
2022-10-01T19:17:26.558Z,92.65
2022-10-01T19:20:18.909Z,92.68
2022-10-01T19:23:11.285Z,92.45
2022-10-01T19:25:58.009Z,92.32
2022-10-01T19:28:49.448Z,93.22
2022-10-01T19:31:50.939Z,93.11
2022-10-01T19:34:32.020Z,92.95
2022-10-01T19:37:11.634Z,92.52
2022-10-01T19:39:46.403Z,92.71
2022-10-01T19:42:23.676Z,93.34
2022-10-01T19:45:07.633Z,93.87
2022-10-01T19:48:03.507Z,93.48
2022-10-01T19:50:43.392Z,93.52
2022-10-01T19:53:30.015Z,93.61
2022-10-01T19:56:04.527Z,93.47
2022-10-01T19:58:34.565Z,94.15
2022-10-01T20:01:04.083Z,96.06
2022-10-01T20:03:45.777Z,96.50
2022-10-01T20:06:40.251Z,96.85
2022-10-01T20:09:14.581Z,97.58
2022-10-01T20:11:46.313Z,98.78
2022-10-01T20:14:35.310Z,99.33
2022-10-01T20:17:24.745Z,99.54
2022-10-01T20:20:52.120Z,99.28
2022-10-01T20:23:58.215Z,99.23
2022-10-01T20:26:30.508Z,99.46
2022-10-01T20:29:20.976Z,99.23
2022-10-01T20:32:06.911Z,99.05
2022-10-01T20:34:56.346Z,98.97
2022-10-01T20:37:42.689Z,98.97
2022-10-01T20:40:13.550Z,98.93
2022-10-01T20:42:47.747Z,99.10
2022-10-01T20:45:36.816Z,99.10
2022-10-01T20:48:17.176Z,98.81
2022-10-01T20:50:50.576Z,98.68
2022-10-01T20:53:53.569Z,98.42
2022-10-01T20:56:47.659Z,98.16
2022-10-01T20:59:40.801Z,98.19
2022-10-01T21:02:28.934Z,98.25
2022-10-01T21:05:19.245Z,98.45
2022-10-01T21:08:02.212Z,98.63
2022-10-01T21:10:35.700Z,98.22
2022-10-01T21:13:36.905Z,98.20
2022-10-01T21:16:29.595Z,98.03
2022-10-01T21:19:30.920Z,98.11
2022-10-01T21:22:19.220Z,98.02
2022-10-01T21:25:05.458Z,97.72
2022-10-01T21:28:12.332Z,97.39
2022-10-01T21:31:06.724Z,97.34
2022-10-01T21:34:13.330Z,97.40
2022-10-01T21:37:26.119Z,97.53
2022-10-01T21:40:17.148Z,97.88
2022-10-01T21:43:22.163Z,97.87
2022-10-01T21:46:20.630Z,97.76
2022-10-01T21:49:24.053Z,97.83
2022-10-01T21:51:58.576Z,97.44
2022-10-01T21:54:58.651Z,96.81
2022-10-01T21:57:56.492Z,96.56
2022-10-01T22:00:28.907Z,96.53
2022-10-01T22:03:35.070Z,96.50
2022-10-01T22:06:09.911Z,96.34
2022-10-01T22:09:05.455Z,96.71
2022-10-01T22:11:39.410Z,97.02
2022-10-01T22:14:27.435Z,96.58
2022-10-01T22:16:58.736Z,96.54
2022-10-01T22:19:33.101Z,96.40
2022-10-01T22:22:38.277Z,96.40
2022-10-01T22:25:08.040Z,96.26
2022-10-01T22:27:48.798Z,95.98
2022-10-01T22:30:23.207Z,95.92
2022-10-01T22:33:16.572Z,95.99
2022-10-01T22:36:02.630Z,96.16
2022-10-01T22:38:42.563Z,96.06
2022-10-01T22:41:47.545Z,96.10
2022-10-01T22:44:23.136Z,96.17
2022-10-01T22:47:09.399Z,96.27
2022-10-01T22:49:40.627Z,96.40
2022-10-01T22:52:20.508Z,96.39
2022-10-01T22:54:48.377Z,96.29
2022-10-01T22:57:41.516Z,96.09
2022-10-01T23:00:14.732Z,95.99
2022-10-01T23:02:48.835Z,96.17
2022-10-01T23:05:52.380Z,96.56
2022-10-01T23:08:46.094Z,96.62
2022-10-01T23:11:20.259Z,96.52
2022-10-01T23:14:10.291Z,96.65
2022-10-01T23:16:54.384Z,97.32
2022-10-01T23:19:32.608Z,97.45
2022-10-01T23:22:19.032Z,97.51
2022-10-01T23:24:50.000Z,97.51
2022-10-01T23:27:24.097Z,97.71
2022-10-01T23:30:19.641Z,97.74
2022-10-01T23:33:08.691Z,97.95
2022-10-01T23:35:43.769Z,97.92
2022-10-01T23:38:33.524Z,97.88
2022-10-01T23:41:11.754Z,98.10
2022-10-01T23:43:46.879Z,98.45
2022-10-01T23:46:27.275Z,98.52
2022-10-01T23:49:07.767Z,98.21
2022-10-01T23:52:03.655Z,98.04
2022-10-01T23:54:44.655Z,97.85
2022-10-01T23:57:18.664Z,98.41
